createdAt,value
2023-04-06T00:00:10.684Z,22.99
2023-04-06T00:00:42.224Z,23.01
2023-04-06T00:01:13.782Z,22.99
2023-04-06T00:01:47.587Z,22.98
2023-04-06T00:02:19.101Z,22.97
2023-04-06T00:02:50.657Z,22.98
2023-04-06T00:03:22.309Z,22.97
2023-04-06T00:03:53.880Z,22.99
2023-04-06T00:04:28.514Z,23.00
2023-04-06T00:04:59.989Z,23.00
2023-04-06T00:05:31.478Z,23.02
2023-04-06T00:06:03.020Z,22.99
2023-04-06T00:06:34.501Z,23.01
2023-04-06T00:07:05.913Z,23.02
2023-04-06T00:07:37.321Z,23.01
2023-04-06T00:08:08.772Z,23.02
2023-04-06T00:08:40.217Z,22.99
2023-04-06T00:09:11.653Z,23.00
2023-04-06T00:09:45.168Z,23.00
2023-04-06T00:10:16.635Z,22.99
2023-04-06T00:10:48.104Z,22.98
2023-04-06T00:11:19.597Z,22.98
2023-04-06T00:11:51.057Z,22.98
2023-04-06T00:12:22.465Z,22.99
2023-04-06T00:12:53.906Z,22.99
2023-04-06T00:13:25.339Z,23.00
2023-04-06T00:13:56.763Z,22.99
2023-04-06T00:14:28.229Z,22.98
2023-04-06T00:14:59.656Z,22.99
2023-04-06T00:15:31.085Z,22.99
2023-04-06T00:16:02.679Z,23.01
2023-04-06T00:16:39.427Z,22.99
2023-04-06T00:17:11.032Z,22.98
2023-04-06T00:17:42.602Z,22.99
2023-04-06T00:18:14.274Z,22.97
2023-04-06T00:18:45.765Z,22.98
2023-04-06T00:19:17.298Z,22.98
2023-04-06T00:19:48.746Z,23.00
2023-04-06T00:20:20.265Z,23.01
2023-04-06T00:20:51.731Z,22.99
2023-04-06T00:21:23.204Z,22.97
2023-04-06T00:21:54.910Z,22.97
2023-04-06T00:22:26.386Z,22.97
2023-04-06T00:22:57.845Z,22.98
2023-04-06T00:23:29.328Z,22.96
2023-04-06T00:24:00.792Z,22.96
2023-04-06T00:24:32.277Z,22.94
2023-04-06T00:25:03.710Z,22.96
2023-04-06T00:25:35.204Z,22.95
2023-04-06T00:26:08.508Z,22.97
2023-04-06T00:26:40.005Z,22.96
2023-04-06T00:27:11.598Z,22.97
2023-04-06T00:27:43.028Z,23.00
2023-04-06T00:28:14.497Z,23.00
2023-04-06T00:28:45.905Z,23.00
2023-04-06T00:29:17.391Z,23.01
2023-04-06T00:29:48.857Z,23.00
2023-04-06T00:30:20.274Z,22.99
2023-04-06T00:30:51.698Z,22.99
2023-04-06T00:31:23.120Z,22.96
2023-04-06T00:31:54.708Z,22.96
2023-04-06T00:32:26.287Z,22.97
2023-04-06T00:32:57.849Z,22.98
2023-04-06T00:33:29.343Z,22.97
2023-04-06T00:34:00.792Z,22.97
2023-04-06T00:34:32.230Z,22.97
2023-04-06T00:35:03.705Z,22.99
2023-04-06T00:35:35.139Z,22.97
2023-04-06T00:36:06.649Z,22.94
2023-04-06T00:36:38.174Z,22.98
2023-04-06T00:37:09.587Z,22.99
2023-04-06T00:37:43.643Z,22.96
2023-04-06T00:38:15.146Z,22.96
2023-04-06T00:38:46.568Z,22.96
2023-04-06T00:39:20.350Z,22.96
2023-04-06T00:39:52.538Z,22.96
2023-04-06T00:40:24.035Z,22.97
2023-04-06T00:40:57.615Z,22.93
2023-04-06T00:41:29.058Z,22.95
2023-04-06T00:42:00.534Z,22.98
2023-04-06T00:42:34.566Z,22.95
2023-04-06T00:43:06.039Z,22.94
2023-04-06T00:43:39.639Z,22.95
2023-04-06T00:44:11.099Z,22.94
2023-04-06T00:44:42.620Z,22.95
2023-04-06T00:45:14.117Z,22.95
2023-04-06T00:45:45.684Z,22.97
2023-04-06T00:46:17.188Z,22.96
2023-04-06T00:46:48.690Z,22.95
2023-04-06T00:47:20.257Z,22.96
2023-04-06T00:47:51.858Z,22.92
2023-04-06T00:48:23.319Z,22.95
2023-04-06T00:48:54.903Z,22.96
2023-04-06T00:49:26.324Z,22.93
2023-04-06T00:49:57.801Z,22.93
2023-04-06T00:50:29.328Z,22.95
2023-04-06T00:51:00.717Z,22.95
2023-04-06T00:51:32.180Z,22.94
2023-04-06T00:52:03.623Z,22.95
2023-04-06T00:52:35.069Z,22.96
2023-04-06T00:53:06.568Z,22.96
2023-04-06T00:53:38.010Z,22.97
2023-04-06T00:54:09.397Z,22.95
2023-04-06T00:54:40.875Z,22.95
2023-04-06T00:55:12.273Z,22.95
2023-04-06T00:55:43.769Z,22.98
2023-04-06T00:56:15.256Z,22.98
2023-04-06T00:56:46.676Z,22.98
2023-04-06T00:57:18.225Z,22.96
2023-04-06T00:57:49.699Z,22.94
2023-04-06T00:58:21.187Z,22.93
2023-04-06T00:58:52.776Z,22.94
2023-04-06T00:59:26.557Z,22.94
2023-04-06T00:59:58.031Z,22.95
2023-04-06T01:00:29.480Z,22.97
2023-04-06T01:01:01.072Z,22.95
2023-04-06T01:01:34.105Z,22.95
2023-04-06T01:02:05.620Z,22.96
2023-04-06T01:02:37.156Z,22.95
2023-04-06T01:03:08.761Z,22.94
2023-04-06T01:03:40.150Z,22.96
2023-04-06T01:04:11.683Z,22.98
2023-04-06T01:04:43.156Z,22.95
2023-04-06T01:05:14.631Z,22.95
2023-04-06T01:05:46.204Z,22.95
2023-04-06T01:06:17.784Z,22.94
2023-04-06T01:06:49.264Z,22.94
2023-04-06T01:07:20.749Z,22.98
2023-04-06T01:07:52.180Z,22.95
2023-04-06T01:08:23.699Z,22.96
2023-04-06T01:08:55.122Z,22.96
2023-04-06T01:09:26.596Z,22.93
2023-04-06T01:09:58.042Z,22.93
2023-04-06T01:10:32.026Z,22.94
2023-04-06T01:11:03.544Z,22.94
2023-04-06T01:11:38.120Z,22.94
2023-04-06T01:12:09.610Z,22.93
2023-04-06T01:12:41.055Z,22.93
2023-04-06T01:13:12.644Z,22.92
2023-04-06T01:13:44.241Z,22.91
2023-04-06T01:14:15.632Z,22.95
2023-04-06T01:14:48.306Z,22.91
2023-04-06T01:15:19.766Z,22.93
2023-04-06T01:15:51.301Z,22.93
2023-04-06T01:16:22.931Z,22.93
2023-04-06T01:16:54.631Z,22.91
2023-04-06T01:17:26.114Z,22.91
2023-04-06T01:17:57.668Z,22.92
2023-04-06T01:18:29.158Z,22.94
2023-04-06T01:19:00.587Z,22.93
2023-04-06T01:19:32.048Z,22.92
2023-04-06T01:20:03.527Z,22.92
2023-04-06T01:20:34.981Z,22.92
2023-04-06T01:21:06.409Z,22.93
2023-04-06T01:21:37.847Z,22.93
2023-04-06T01:22:09.349Z,22.92
2023-04-06T01:22:40.788Z,22.90
2023-04-06T01:23:12.209Z,22.91
2023-04-06T01:23:43.673Z,22.92
2023-04-06T01:24:15.098Z,22.93
2023-04-06T01:24:46.545Z,22.93
2023-04-06T01:25:17.973Z,22.93
2023-04-06T01:25:49.419Z,22.96
2023-04-06T01:26:23.612Z,22.94
2023-04-06T01:26:55.029Z,22.93
2023-04-06T01:27:26.601Z,22.94
2023-04-06T01:27:58.090Z,22.91
2023-04-06T01:28:29.479Z,22.91
2023-04-06T01:29:00.917Z,22.93
2023-04-06T01:29:32.424Z,22.92
2023-04-06T01:30:06.734Z,22.92
2023-04-06T01:30:38.172Z,22.91
2023-04-06T01:31:09.730Z,22.91
2023-04-06T01:31:41.359Z,22.91
2023-04-06T01:32:12.845Z,22.92
2023-04-06T01:32:44.370Z,22.93
2023-04-06T01:33:15.918Z,22.92
2023-04-06T01:33:47.333Z,22.92
2023-04-06T01:34:18.711Z,22.92
2023-04-06T01:34:52.977Z,22.94
2023-04-06T01:35:24.706Z,22.92
2023-04-06T01:35:56.265Z,22.90
2023-04-06T01:36:27.740Z,22.90
2023-04-06T01:36:59.251Z,22.93
2023-04-06T01:37:30.761Z,22.92
2023-04-06T01:38:02.226Z,22.89
2023-04-06T01:38:33.675Z,22.90
2023-04-06T01:39:05.497Z,22.91
2023-04-06T01:39:36.935Z,22.89
2023-04-06T01:40:08.475Z,22.89
2023-04-06T01:40:39.946Z,22.89
2023-04-06T01:41:14.922Z,22.88
2023-04-06T01:41:46.385Z,22.87
2023-04-06T01:42:17.866Z,22.92
2023-04-06T01:42:49.444Z,22.90
2023-04-06T01:43:20.837Z,22.91
2023-04-06T01:43:52.286Z,22.91
2023-04-06T01:44:23.790Z,22.91
2023-04-06T01:44:55.217Z,22.92
2023-04-06T01:45:26.644Z,22.93
2023-04-06T01:45:58.094Z,22.91
2023-04-06T01:46:32.223Z,22.93
2023-04-06T01:47:03.741Z,22.90
2023-04-06T01:47:35.211Z,22.91
2023-04-06T01:48:06.810Z,22.92
2023-04-06T01:48:38.504Z,22.90
2023-04-06T01:49:12.804Z,22.92
2023-04-06T01:49:44.305Z,22.95
2023-04-06T01:50:15.714Z,22.92
2023-04-06T01:50:47.156Z,22.91
2023-04-06T01:51:18.613Z,22.93
2023-04-06T01:51:50.045Z,22.94
2023-04-06T01:52:21.531Z,22.90
2023-04-06T01:52:52.925Z,22.92
2023-04-06T01:53:24.610Z,22.92
2023-04-06T01:53:56.050Z,22.93
2023-04-06T01:54:27.464Z,22.94
2023-04-06T01:54:58.896Z,22.93
2023-04-06T01:55:30.379Z,22.93
2023-04-06T01:56:01.811Z,22.92
2023-04-06T01:56:33.206Z,22.92
2023-04-06T01:57:04.636Z,22.91
2023-04-06T01:57:36.148Z,22.90
2023-04-06T01:58:07.630Z,22.92
2023-04-06T01:58:39.115Z,22.90
2023-04-06T01:59:10.902Z,22.91
2023-04-06T01:59:42.789Z,22.93
2023-04-06T02:00:14.350Z,22.92
2023-04-06T02:00:45.828Z,22.93
2023-04-06T02:01:23.823Z,22.90
2023-04-06T02:01:57.620Z,22.92
2023-04-06T02:02:29.238Z,22.92
2023-04-06T02:03:00.902Z,22.91
2023-04-06T02:03:32.264Z,22.93
2023-04-06T02:04:03.679Z,22.94
2023-04-06T02:04:35.122Z,22.94
2023-04-06T02:05:06.663Z,22.92
2023-04-06T02:05:38.179Z,22.93
2023-04-06T02:06:09.727Z,22.91
2023-04-06T02:06:41.165Z,22.91
2023-04-06T02:07:12.681Z,22.91
2023-04-06T02:07:44.209Z,22.91
2023-04-06T02:08:15.614Z,22.91
2023-04-06T02:08:47.150Z,22.92
2023-04-06T02:09:18.578Z,22.92
2023-04-06T02:09:50.042Z,22.93
2023-04-06T02:10:21.472Z,22.91
2023-04-06T02:10:55.684Z,22.91
2023-04-06T02:11:27.188Z,22.91
2023-04-06T02:11:58.686Z,22.93
2023-04-06T02:12:30.105Z,22.90
2023-04-06T02:13:04.200Z,22.91
2023-04-06T02:13:35.652Z,22.90
2023-04-06T02:14:07.136Z,22.90
2023-04-06T02:14:38.590Z,22.91
2023-04-06T02:15:09.988Z,22.90
2023-04-06T02:15:41.509Z,22.90
2023-04-06T02:16:13.027Z,22.92
2023-04-06T02:16:44.717Z,22.91
2023-04-06T02:17:16.178Z,22.92
2023-04-06T02:17:47.768Z,22.91
2023-04-06T02:18:22.708Z,22.88
2023-04-06T02:18:54.123Z,22.90
2023-04-06T02:19:25.669Z,22.91
2023-04-06T02:19:57.138Z,22.91
2023-04-06T02:20:28.594Z,22.91
2023-04-06T02:21:00.122Z,22.91
2023-04-06T02:21:31.674Z,22.91
2023-04-06T02:22:03.168Z,22.92
2023-04-06T02:22:34.665Z,22.92
2023-04-06T02:23:06.105Z,22.91
2023-04-06T02:23:37.645Z,22.89
2023-04-06T02:24:09.270Z,22.90
2023-04-06T02:24:40.801Z,22.88
2023-04-06T02:25:12.262Z,22.89
2023-04-06T02:25:43.735Z,22.90
2023-04-06T02:26:15.150Z,22.92
2023-04-06T02:26:46.604Z,22.91
2023-04-06T02:27:18.105Z,22.91
2023-04-06T02:27:49.519Z,22.87
2023-04-06T02:28:21.010Z,22.87
2023-04-06T02:28:52.502Z,22.89
2023-04-06T02:29:23.894Z,22.89
2023-04-06T02:29:55.328Z,22.88
2023-04-06T02:30:29.492Z,22.89
2023-04-06T02:31:00.925Z,22.89
2023-04-06T02:31:32.453Z,22.88
2023-04-06T02:32:04.003Z,22.87
2023-04-06T02:32:35.588Z,22.88
2023-04-06T02:33:07.153Z,22.90
2023-04-06T02:33:41.744Z,22.90
2023-04-06T02:34:13.243Z,22.92
2023-04-06T02:34:46.985Z,22.91
2023-04-06T02:35:18.484Z,22.89
2023-04-06T02:35:49.970Z,22.89
2023-04-06T02:36:21.581Z,22.89
2023-04-06T02:36:55.747Z,22.91
2023-04-06T02:37:27.211Z,22.89
2023-04-06T02:37:58.770Z,22.90
2023-04-06T02:38:30.204Z,22.91
2023-04-06T02:39:01.632Z,22.92
2023-04-06T02:39:33.109Z,22.91
2023-04-06T02:40:06.443Z,22.90
2023-04-06T02:40:37.850Z,22.88
2023-04-06T02:41:09.300Z,22.90
2023-04-06T02:41:40.702Z,22.90
2023-04-06T02:42:12.129Z,22.86
2023-04-06T02:42:43.581Z,22.89
2023-04-06T02:43:15.082Z,22.88
2023-04-06T02:43:46.546Z,22.86
2023-04-06T02:44:17.977Z,22.86
2023-04-06T02:44:49.416Z,22.88
2023-04-06T02:45:20.908Z,22.88
2023-04-06T02:45:52.366Z,22.88
2023-04-06T02:46:24.014Z,22.90
2023-04-06T02:46:55.490Z,22.91
2023-04-06T02:47:26.929Z,22.89
2023-04-06T02:47:58.588Z,22.91
2023-04-06T02:48:32.772Z,22.89
2023-04-06T02:49:04.308Z,22.89
2023-04-06T02:49:35.723Z,22.87
2023-04-06T02:50:07.283Z,22.88
2023-04-06T02:50:38.793Z,22.86
2023-04-06T02:51:10.298Z,22.88
2023-04-06T02:51:41.745Z,22.88
2023-04-06T02:52:13.258Z,22.89
2023-04-06T02:52:44.703Z,22.90
2023-04-06T02:53:16.210Z,22.90
2023-04-06T02:53:47.642Z,22.90
2023-04-06T02:54:19.039Z,22.89
2023-04-06T02:54:51.563Z,22.86
2023-04-06T02:55:23.117Z,22.89
2023-04-06T02:55:54.622Z,22.90
2023-04-06T02:56:26.066Z,22.90
2023-04-06T02:56:57.558Z,22.89
2023-04-06T02:57:28.999Z,22.91
2023-04-06T02:58:00.385Z,22.91
2023-04-06T02:58:31.976Z,22.90
2023-04-06T02:59:03.419Z,22.89
2023-04-06T02:59:34.957Z,22.89
2023-04-06T03:00:06.429Z,22.88
2023-04-06T03:00:37.920Z,22.88
2023-04-06T03:01:09.464Z,22.89
2023-04-06T03:01:41.055Z,22.89
2023-04-06T03:02:12.507Z,22.91
2023-04-06T03:02:44.100Z,22.90
2023-04-06T03:03:15.766Z,22.89
2023-04-06T03:03:47.477Z,22.87
2023-04-06T03:04:19.123Z,22.87
2023-04-06T03:04:50.565Z,22.88
2023-04-06T03:05:22.103Z,22.88
2023-04-06T03:05:53.666Z,22.88
2023-04-06T03:06:25.087Z,22.87
2023-04-06T03:06:57.444Z,22.89
2023-04-06T03:07:29.642Z,22.90
2023-04-06T03:08:01.141Z,22.88
2023-04-06T03:08:32.578Z,22.88
2023-04-06T03:09:04.089Z,22.85
2023-04-06T03:09:35.466Z,22.85
2023-04-06T03:10:09.786Z,22.86
2023-04-06T03:10:41.347Z,22.90
2023-04-06T03:11:12.799Z,22.89
2023-04-06T03:11:44.357Z,22.89
2023-04-06T03:12:15.763Z,22.89
2023-04-06T03:12:47.178Z,22.88
2023-04-06T03:13:18.612Z,22.85
2023-04-06T03:13:50.073Z,22.86
2023-04-06T03:14:21.589Z,22.88
2023-04-06T03:14:53.036Z,22.86
2023-04-06T03:15:24.660Z,22.87
2023-04-06T03:15:56.168Z,22.87
2023-04-06T03:16:27.651Z,22.87
2023-04-06T03:16:59.180Z,22.88
2023-04-06T03:17:30.668Z,22.86
2023-04-06T03:18:02.195Z,22.84
2023-04-06T03:18:33.676Z,22.85
2023-04-06T03:19:05.121Z,22.87
2023-04-06T03:19:36.677Z,22.88
2023-04-06T03:20:08.088Z,22.87
2023-04-06T03:20:39.542Z,22.85
2023-04-06T03:21:11.024Z,22.85
2023-04-06T03:21:42.450Z,22.87
2023-04-06T03:22:13.931Z,22.84
2023-04-06T03:22:45.386Z,22.86
2023-04-06T03:23:18.623Z,22.85
2023-04-06T03:23:50.054Z,22.89
2023-04-06T03:24:21.533Z,22.87
2023-04-06T03:24:53.024Z,22.87
2023-04-06T03:25:24.643Z,22.87
2023-04-06T03:25:56.116Z,22.89
2023-04-06T03:26:27.599Z,22.87
2023-04-06T03:26:59.109Z,22.89
2023-04-06T03:27:30.628Z,22.87
2023-04-06T03:28:02.223Z,22.86
2023-04-06T03:28:33.687Z,22.88
2023-04-06T03:29:05.206Z,22.86
2023-04-06T03:29:36.823Z,22.85
2023-04-06T03:30:08.277Z,22.86
2023-04-06T03:30:39.693Z,22.88
2023-04-06T03:31:11.456Z,22.90
2023-04-06T03:31:42.990Z,22.89
2023-04-06T03:32:14.543Z,22.87
2023-04-06T03:32:48.167Z,22.85
2023-04-06T03:33:19.673Z,22.85
2023-04-06T03:33:51.175Z,22.88
2023-04-06T03:34:22.628Z,22.88
2023-04-06T03:34:54.113Z,22.85
2023-04-06T03:35:25.699Z,22.86
2023-04-06T03:35:57.264Z,22.85
2023-04-06T03:36:28.788Z,22.86
2023-04-06T03:37:09.355Z,22.88
2023-04-06T03:37:42.000Z,22.89
2023-04-06T03:38:13.437Z,22.89
2023-04-06T03:38:44.918Z,22.91
2023-04-06T03:39:16.353Z,22.90
2023-04-06T03:39:47.812Z,22.90
2023-04-06T03:40:19.254Z,22.89
2023-04-06T03:40:50.762Z,22.86
2023-04-06T03:41:22.185Z,22.87
2023-04-06T03:41:53.662Z,22.86
2023-04-06T03:42:28.074Z,22.87
2023-04-06T03:42:59.499Z,22.87
2023-04-06T03:43:31.010Z,22.88
2023-04-06T03:44:02.538Z,22.87
2023-04-06T03:44:34.072Z,22.88
2023-04-06T03:45:05.507Z,22.88
2023-04-06T03:45:36.904Z,22.88
2023-04-06T03:46:08.410Z,22.87
2023-04-06T03:46:39.976Z,22.87
2023-04-06T03:47:11.437Z,22.87
2023-04-06T03:47:42.894Z,22.89
2023-04-06T03:48:17.242Z,22.90
2023-04-06T03:48:48.708Z,22.87
2023-04-06T03:49:20.188Z,22.87
2023-04-06T03:49:51.638Z,22.86
2023-04-06T03:50:23.063Z,22.90
2023-04-06T03:50:54.505Z,22.88
2023-04-06T03:51:25.983Z,22.88
2023-04-06T03:51:57.453Z,22.87
2023-04-06T03:52:28.928Z,22.89
2023-04-06T03:53:00.467Z,22.88
2023-04-06T03:53:31.973Z,22.87
2023-04-06T03:54:03.412Z,22.86
2023-04-06T03:54:34.995Z,22.89
2023-04-06T03:55:07.872Z,22.87
2023-04-06T03:55:39.305Z,22.87
2023-04-06T03:56:10.808Z,22.88
2023-04-06T03:56:42.291Z,22.89
2023-04-06T03:57:13.776Z,22.88
2023-04-06T03:57:45.160Z,22.91
2023-04-06T03:58:16.545Z,22.88
2023-04-06T03:58:47.984Z,22.86
2023-04-06T03:59:19.478Z,22.89
2023-04-06T03:59:50.945Z,22.89
2023-04-06T04:00:22.380Z,22.90
2023-04-06T04:00:56.461Z,22.88
2023-04-06T04:01:27.953Z,22.89
2023-04-06T04:01:59.416Z,22.88
2023-04-06T04:02:31.062Z,22.88
2023-04-06T04:03:02.698Z,22.88
2023-04-06T04:03:34.310Z,22.88
2023-04-06T04:04:05.842Z,22.87
2023-04-06T04:04:37.320Z,22.89
2023-04-06T04:05:08.975Z,22.88
2023-04-06T04:05:40.584Z,22.88
2023-04-06T04:06:12.053Z,22.89
2023-04-06T04:06:43.473Z,22.89
2023-04-06T04:07:14.988Z,22.87
2023-04-06T04:07:46.401Z,22.90
2023-04-06T04:08:17.796Z,22.92
2023-04-06T04:08:49.303Z,22.90
2023-04-06T04:09:20.797Z,22.90
2023-04-06T04:09:52.285Z,22.91
2023-04-06T04:10:23.832Z,22.89
2023-04-06T04:10:55.313Z,22.89
2023-04-06T04:11:26.777Z,22.88
2023-04-06T04:12:00.830Z,22.92
2023-04-06T04:12:32.341Z,22.90
2023-04-06T04:13:06.644Z,22.89
2023-04-06T04:13:40.932Z,22.92
2023-04-06T04:14:12.379Z,22.90
2023-04-06T04:14:43.857Z,22.91
2023-04-06T04:15:15.271Z,22.91
2023-04-06T04:15:46.811Z,22.91
2023-04-06T04:16:18.274Z,22.89
2023-04-06T04:16:49.819Z,22.87
2023-04-06T04:17:24.115Z,22.88
2023-04-06T04:17:55.583Z,22.86
2023-04-06T04:18:27.085Z,22.87
2023-04-06T04:18:58.496Z,22.87
2023-04-06T04:19:30.036Z,22.89
2023-04-06T04:20:03.011Z,22.89
2023-04-06T04:20:34.440Z,22.88
2023-04-06T04:21:05.971Z,22.89
2023-04-06T04:21:37.380Z,22.88
2023-04-06T04:22:08.922Z,22.90
2023-04-06T04:22:40.471Z,22.89
2023-04-06T04:23:11.883Z,22.89
2023-04-06T04:23:43.390Z,22.90
2023-04-06T04:24:14.852Z,22.89
2023-04-06T04:24:52.149Z,22.90
2023-04-06T04:25:23.716Z,22.91
2023-04-06T04:25:55.160Z,22.90
2023-04-06T04:26:29.531Z,22.89
2023-04-06T04:27:00.972Z,22.89
2023-04-06T04:27:32.432Z,22.91
2023-04-06T04:28:03.976Z,22.91
2023-04-06T04:28:35.495Z,22.90
2023-04-06T04:29:07.196Z,22.89
2023-04-06T04:29:38.882Z,22.87
2023-04-06T04:30:10.363Z,22.92
2023-04-06T04:30:41.824Z,22.91
2023-04-06T04:31:13.272Z,22.89
2023-04-06T04:31:44.760Z,22.91
2023-04-06T04:32:16.284Z,22.90
2023-04-06T04:32:47.816Z,22.89
2023-04-06T04:33:19.320Z,22.90
2023-04-06T04:33:50.825Z,22.91
2023-04-06T04:34:28.332Z,22.90
2023-04-06T04:34:59.852Z,22.89
2023-04-06T04:35:31.335Z,22.87
2023-04-06T04:36:02.857Z,22.87
2023-04-06T04:36:34.414Z,22.89
2023-04-06T04:37:05.921Z,22.91
2023-04-06T04:37:37.343Z,22.90
2023-04-06T04:38:08.815Z,22.89
2023-04-06T04:38:43.121Z,22.89
2023-04-06T04:39:14.655Z,22.87
2023-04-06T04:39:46.180Z,22.89
2023-04-06T04:40:17.735Z,22.87
2023-04-06T04:40:50.748Z,22.88
2023-04-06T04:41:22.256Z,22.88
2023-04-06T04:41:53.760Z,22.89
2023-04-06T04:42:27.901Z,22.88
2023-04-06T04:43:02.138Z,22.88
2023-04-06T04:43:33.570Z,22.87
2023-04-06T04:44:05.028Z,22.88
2023-04-06T04:44:39.277Z,22.88
2023-04-06T04:45:10.708Z,22.91
2023-04-06T04:45:42.256Z,22.89
2023-04-06T04:46:13.938Z,22.87
2023-04-06T04:46:45.432Z,22.86
2023-04-06T04:47:19.868Z,22.84
2023-04-06T04:47:51.459Z,22.89
2023-04-06T04:48:22.954Z,22.90
2023-04-06T04:48:54.393Z,22.91
2023-04-06T04:49:25.806Z,22.91
2023-04-06T04:49:57.201Z,22.91
2023-04-06T04:50:30.060Z,22.88
2023-04-06T04:51:01.578Z,22.90
2023-04-06T04:51:33.031Z,22.91
2023-04-06T04:52:06.005Z,22.90
2023-04-06T04:52:37.474Z,22.90
2023-04-06T04:53:09.024Z,22.89
2023-04-06T04:53:43.281Z,22.90
2023-04-06T04:54:17.224Z,22.92
2023-04-06T04:54:48.683Z,22.92
2023-04-06T04:55:20.175Z,22.88
2023-04-06T04:55:51.600Z,22.89
2023-04-06T04:56:25.690Z,22.90
2023-04-06T04:56:57.212Z,22.89
2023-04-06T04:57:31.536Z,22.87
2023-04-06T04:58:03.022Z,22.88
2023-04-06T04:58:34.542Z,22.88
2023-04-06T04:59:06.070Z,22.86
2023-04-06T04:59:37.650Z,22.88
2023-04-06T05:00:09.164Z,22.89
2023-04-06T05:00:40.655Z,22.87
2023-04-06T05:01:12.131Z,22.87
2023-04-06T05:01:54.396Z,22.87
2023-04-06T05:02:26.790Z,22.86
2023-04-06T05:02:58.657Z,22.85
2023-04-06T05:03:30.184Z,22.88
2023-04-06T05:04:01.741Z,22.87
2023-04-06T05:04:33.259Z,22.86
2023-04-06T05:05:06.741Z,22.85
2023-04-06T05:05:38.182Z,22.85
2023-04-06T05:06:11.517Z,22.89
2023-04-06T05:06:44.349Z,22.87
2023-04-06T05:07:16.011Z,22.89
2023-04-06T05:07:47.531Z,22.91
2023-04-06T05:08:18.971Z,22.90
2023-04-06T05:08:50.473Z,22.90
2023-04-06T05:09:21.974Z,22.90
2023-04-06T05:09:53.404Z,22.89
2023-04-06T05:10:24.857Z,22.87
2023-04-06T05:10:56.340Z,22.85
2023-04-06T05:11:27.779Z,22.87
2023-04-06T05:11:59.240Z,22.88
2023-04-06T05:12:30.698Z,22.89
2023-04-06T05:13:02.144Z,22.90
2023-04-06T05:13:33.628Z,22.91
2023-04-06T05:14:08.108Z,22.91
2023-04-06T05:14:39.541Z,22.91
2023-04-06T05:15:10.946Z,22.90
2023-04-06T05:15:42.499Z,22.87
2023-04-06T05:16:14.008Z,22.87
2023-04-06T05:16:45.477Z,22.85
2023-04-06T05:17:17.002Z,22.87
2023-04-06T05:17:48.500Z,22.87
2023-04-06T05:18:20.107Z,22.87
2023-04-06T05:18:51.526Z,22.86
2023-04-06T05:19:22.996Z,22.89
2023-04-06T05:19:54.436Z,22.89
2023-04-06T05:20:25.926Z,22.86
2023-04-06T05:20:57.434Z,22.89
2023-04-06T05:21:30.378Z,22.87
2023-04-06T05:22:01.855Z,22.88
2023-04-06T05:22:33.382Z,22.87
2023-04-06T05:23:04.815Z,22.89
2023-04-06T05:23:37.897Z,22.89
2023-04-06T05:24:09.373Z,22.87
2023-04-06T05:24:40.764Z,22.89
2023-04-06T05:25:12.201Z,22.88
2023-04-06T05:25:43.683Z,22.90
2023-04-06T05:26:15.124Z,22.88
2023-04-06T05:26:46.599Z,22.87
2023-04-06T05:27:18.079Z,22.89
2023-04-06T05:27:49.550Z,22.90
2023-04-06T05:28:21.038Z,22.90
2023-04-06T05:28:52.580Z,22.89
2023-04-06T05:29:24.055Z,22.90
2023-04-06T05:29:56.752Z,22.91
2023-04-06T05:30:29.264Z,22.87
2023-04-06T05:31:00.780Z,22.85
2023-04-06T05:31:32.308Z,22.86
2023-04-06T05:32:03.833Z,22.88
2023-04-06T05:32:35.276Z,22.87
2023-04-06T05:33:06.788Z,22.88
2023-04-06T05:33:38.251Z,22.89
2023-04-06T05:34:10.644Z,22.87
2023-04-06T05:34:42.114Z,22.88
2023-04-06T05:35:13.595Z,22.88
2023-04-06T05:35:45.453Z,22.88
2023-04-06T05:36:16.923Z,22.85
2023-04-06T05:36:48.361Z,22.85
2023-04-06T05:37:19.801Z,22.85
2023-04-06T05:37:51.253Z,22.87
2023-04-06T05:38:22.756Z,22.86
2023-04-06T05:38:56.552Z,22.86
2023-04-06T05:39:28.039Z,22.87
2023-04-06T05:39:59.455Z,22.86
2023-04-06T05:40:30.880Z,22.86
2023-04-06T05:41:02.306Z,22.86
2023-04-06T05:41:33.806Z,22.87
2023-04-06T05:42:05.249Z,22.88
2023-04-06T05:42:36.796Z,22.88
2023-04-06T05:43:08.257Z,22.88
2023-04-06T05:43:39.760Z,22.90
2023-04-06T05:44:11.181Z,22.89
2023-04-06T05:44:42.660Z,22.89
2023-04-06T05:45:14.099Z,22.89
2023-04-06T05:45:45.580Z,22.89
2023-04-06T05:46:17.184Z,22.86
2023-04-06T05:46:48.732Z,22.86
2023-04-06T05:47:20.223Z,22.87
2023-04-06T05:47:51.677Z,22.87
2023-04-06T05:48:23.169Z,22.87
2023-04-06T05:48:54.729Z,22.87
2023-04-06T05:49:26.156Z,22.85
2023-04-06T05:49:57.742Z,22.85
2023-04-06T05:50:29.175Z,22.83
2023-04-06T05:51:00.605Z,22.87
2023-04-06T05:51:34.313Z,22.87
2023-04-06T05:52:05.794Z,22.88
2023-04-06T05:52:37.241Z,22.89
2023-04-06T05:53:08.659Z,22.90
2023-04-06T05:53:40.065Z,22.92
2023-04-06T05:54:11.551Z,22.89
2023-04-06T05:54:43.033Z,22.88
2023-04-06T05:55:14.616Z,22.89
2023-04-06T05:55:46.080Z,22.88
2023-04-06T05:56:17.739Z,22.88
2023-04-06T05:56:49.188Z,22.91
2023-04-06T05:57:20.658Z,22.91
2023-04-06T05:57:52.253Z,22.90
2023-04-06T05:58:23.740Z,22.86
2023-04-06T05:58:55.257Z,22.86
2023-04-06T05:59:26.697Z,22.89
2023-04-06T06:00:03.818Z,22.90
2023-04-06T06:00:35.329Z,22.90
2023-04-06T06:01:06.748Z,22.90
2023-04-06T06:01:38.277Z,22.92
2023-04-06T06:02:11.254Z,22.93
2023-04-06T06:02:42.723Z,22.90
2023-04-06T06:03:17.022Z,22.90
2023-04-06T06:03:48.498Z,22.90
2023-04-06T06:04:19.989Z,22.91
2023-04-06T06:04:51.488Z,22.91
2023-04-06T06:05:23.053Z,22.90
2023-04-06T06:05:54.720Z,22.91
2023-04-06T06:06:26.129Z,22.90
2023-04-06T06:06:57.583Z,22.89
2023-04-06T06:07:29.046Z,22.92
2023-04-06T06:08:00.482Z,22.91
2023-04-06T06:08:31.956Z,22.90
2023-04-06T06:09:03.483Z,22.91
2023-04-06T06:09:34.974Z,22.91
2023-04-06T06:10:06.444Z,22.91
2023-04-06T06:10:39.602Z,22.93
2023-04-06T06:11:11.052Z,22.92
2023-04-06T06:11:42.530Z,22.91
2023-04-06T06:12:14.758Z,22.91
2023-04-06T06:12:46.277Z,22.90
2023-04-06T06:13:24.961Z,22.91
2023-04-06T06:13:56.444Z,22.91
2023-04-06T06:14:27.984Z,22.91
2023-04-06T06:15:02.984Z,22.90
2023-04-06T06:15:37.176Z,22.91
2023-04-06T06:16:11.436Z,22.91
2023-04-06T06:16:42.858Z,22.91
2023-04-06T06:17:14.297Z,22.92
2023-04-06T06:17:48.574Z,22.91
2023-04-06T06:18:20.084Z,22.93
2023-04-06T06:18:53.041Z,22.92
2023-04-06T06:19:24.639Z,22.91
2023-04-06T06:19:56.238Z,22.91
2023-04-06T06:20:27.666Z,22.91
2023-04-06T06:20:59.115Z,22.93
2023-04-06T06:21:30.563Z,22.91
2023-04-06T06:22:02.004Z,22.93
2023-04-06T06:22:33.482Z,22.91
2023-04-06T06:23:04.925Z,22.91
2023-04-06T06:23:39.482Z,22.90
2023-04-06T06:24:13.618Z,22.91
2023-04-06T06:24:45.058Z,22.92
2023-04-06T06:25:16.610Z,22.92
2023-04-06T06:25:48.091Z,22.93
2023-04-06T06:26:21.320Z,22.91
2023-04-06T06:26:52.806Z,22.92
2023-04-06T06:27:24.216Z,22.90
2023-04-06T06:27:55.627Z,22.90
2023-04-06T06:28:27.135Z,22.91
2023-04-06T06:28:58.569Z,22.90
2023-04-06T06:29:30.025Z,22.92
2023-04-06T06:30:04.015Z,22.92
2023-04-06T06:30:35.537Z,22.93
2023-04-06T06:31:07.075Z,22.93
2023-04-06T06:31:38.510Z,22.92
2023-04-06T06:32:10.070Z,22.92
2023-04-06T06:32:41.576Z,22.92
2023-04-06T06:33:13.293Z,22.93
2023-04-06T06:33:44.723Z,22.93
2023-04-06T06:34:16.244Z,22.92
2023-04-06T06:34:50.566Z,22.91
2023-04-06T06:35:22.066Z,22.92
2023-04-06T06:35:53.532Z,22.94
2023-04-06T06:36:25.099Z,22.92
2023-04-06T06:36:56.620Z,22.93
2023-04-06T06:37:31.360Z,22.92
2023-04-06T06:38:02.899Z,22.96
2023-04-06T06:38:34.369Z,22.94
2023-04-06T06:39:05.931Z,22.94
2023-04-06T06:39:37.609Z,22.93
2023-04-06T06:40:09.153Z,22.93
2023-04-06T06:40:40.606Z,22.93
2023-04-06T06:41:14.851Z,22.93
2023-04-06T06:41:46.360Z,22.93
2023-04-06T06:42:17.813Z,22.93
2023-04-06T06:42:49.289Z,22.94
2023-04-06T06:43:23.871Z,22.95
2023-04-06T06:43:55.325Z,22.93
2023-04-06T06:44:26.789Z,22.94
2023-04-06T06:44:58.260Z,22.94
2023-04-06T06:45:29.770Z,22.96
2023-04-06T06:46:01.283Z,22.94
2023-04-06T06:46:35.643Z,22.93
2023-04-06T06:47:07.102Z,22.93
2023-04-06T06:47:38.581Z,22.94
2023-04-06T06:48:10.230Z,22.94
2023-04-06T06:48:44.551Z,22.95
2023-04-06T06:49:16.008Z,22.95
2023-04-06T06:49:47.599Z,22.93